sensor_id;sensor_type;location;lat;lon;timestamp;temperature;humidity
31597;DHT22;18201;50.978;7.034;2022-09-09T00:00:55;16.20;99.90
31597;DHT22;18201;50.978;7.034;2022-09-09T00:02:08;16.20;99.90
31597;DHT22;18201;50.978;7.034;2022-09-09T00:03:17;16.20;99.90
31597;DHT22;18201;50.978;7.034;2022-09-09T00:04:26;16.20;99.90
31597;DHT22;18201;50.978;7.034;2022-09-09T00:05:32;16.30;99.90
31597;DHT22;18201;50.978;7.034;2022-09-09T00:06:42;16.30;99.90
31597;DHT22;18201;50.978;7.034;2022-09-09T00:07:47;16.30;99.90
31597;DHT22;18201;50.978;7.034;2022-09-09T00:09:00;16.30;99.90
31597;DHT22;18201;50.978;7.034;2022-09-09T00:10:09;16.30;99.90
31597;DHT22;18201;50.978;7.034;2022-09-09T00:11:21;16.30;99.90
31597;DHT22;18201;50.978;7.034;2022-09-09T00:12:32;16.30;99.90
31597;DHT22;18201;50.978;7.034;2022-09-09T00:13:38;16.20;99.90
31597;DHT22;18201;50.978;7.034;2022-09-09T00:14:48;16.20;99.90
31597;DHT22;18201;50.978;7.034;2022-09-09T00:15:59;16.20;99.90
31597;DHT22;18201;50.978;7.034;2022-09-09T00:17:03;16.20;99.90
31597;DHT22;18201;50.978;7.034;2022-09-09T00:18:14;16.20;99.90
31597;DHT22;18201;50.978;7.034;2022-09-09T00:19:21;16.20;99.90
31597;DHT22;18201;50.978;7.034;2022-09-09T00:20:29;16.20;99.90
31597;DHT22;18201;50.978;7.034;2022-09-09T00:21:34;16.20;99.90
31597;DHT22;18201;50.978;7.034;2022-09-09T00:22:40;16.20;99.90
31597;DHT22;18201;50.978;7.034;2022-09-09T00:23:47;16.20;99.90
31597;DHT22;18201;50.978;7.034;2022-09-09T00:24:52;16.20;99.90
31597;DHT22;18201;50.978;7.034;2022-09-09T00:26:00;16.20;99.90
31597;DHT22;18201;50.978;7.034;2022-09-09T00:27:07;16.10;99.90
31597;DHT22;18201;50.978;7.034;2022-09-09T00:28:18;16.10;99.90
31597;DHT22;18201;50.978;7.034;2022-09-09T00:29:26;16.10;99.90
31597;DHT22;18201;50.978;7.034;2022-09-09T00:30:31;16.10;99.90
31597;DHT22;18201;50.978;7.034;2022-09-09T00:31:34;16.10;99.90
31597;DHT22;18201;50.978;7.034;2022-09-09T00:32:35;16.10;99.90
31597;DHT22;18201;50.978;7.034;2022-09-09T00:33:38;16.10;99.90
31597;DHT22;18201;50.978;7.034;2022-09-09T00:34:47;16.10;99.90
31597;DHT22;18201;50.978;7.034;2022-09-09T00:35:50;16.10;99.90
31597;DHT22;18201;50.978;7.034;2022-09-09T00:36:53;16.10;99.90
31597;DHT22;18201;50.978;7.034;2022-09-09T00:38:00;16.10;99.90
31597;DHT22;18201;50.978;7.034;2022-09-09T00:39:03;16.10;99.90
31597;DHT22;18201;50.978;7.034;2022-09-09T00:40:16;16.10;99.90
31597;DHT22;18201;50.978;7.034;2022-09-09T00:41:22;16.10;99.90
31597;DHT22;18201;50.978;7.034;2022-09-09T00:42:40;16.10;99.90
31597;DHT22;18201;50.978;7.034;2022-09-09T00:43:49;16.10;99.90
31597;DHT22;18201;50.978;7.034;2022-09-09T00:45:09;16.10;99.90
31597;DHT22;18201;50.978;7.034;2022-09-09T00:46:37;16.00;99.90
31597;DHT22;18201;50.978;7.034;2022-09-09T00:47:45;16.10;99.90
31597;DHT22;18201;50.978;7.034;2022-09-09T00:48:52;16.10;99.90
31597;DHT22;18201;50.978;7.034;2022-09-09T00:50:00;16.10;99.90
31597;DHT22;18201;50.978;7.034;2022-09-09T00:51:09;16.10;99.90
31597;DHT22;18201;50.978;7.034;2022-09-09T00:52:23;16.10;99.90
31597;DHT22;18201;50.978;7.034;2022-09-09T00:53:33;16.10;99.90
31597;DHT22;18201;50.978;7.034;2022-09-09T00:54:45;16.10;99.90
31597;DHT22;18201;50.978;7.034;2022-09-09T00:55:51;16.10;99.90
31597;DHT22;18201;50.978;7.034;2022-09-09T00:57:03;16.00;99.90
31597;DHT22;18201;50.978;7.034;2022-09-09T00:58:06;16.10;99.90
31597;DHT22;18201;50.978;7.034;2022-09-09T00:59:21;16.10;99.90
31597;DHT22;18201;50.978;7.034;2022-09-09T01:00:27;16.10;99.90
31597;DHT22;18201;50.978;7.034;2022-09-09T01:01:29;16.10;99.90
31597;DHT22;18201;50.978;7.034;2022-09-09T01:02:35;16.10;99.90
31597;DHT22;18201;50.978;7.034;2022-09-09T01:03:45;16.10;99.90
31597;DHT22;18201;50.978;7.034;2022-09-09T01:04:48;16.10;99.90
31597;DHT22;18201;50.978;7.034;2022-09-09T01:05:59;16.20;99.90
31597;DHT22;18201;50.978;7.034;2022-09-09T01:07:06;16.20;99.90
31597;DHT22;18201;50.978;7.034;2022-09-09T01:08:22;16.20;99.90
31597;DHT22;18201;50.978;7.034;2022-09-09T01:09:33;16.20;99.90
31597;DHT22;18201;50.978;7.034;2022-09-09T01:10:45;16.20;99.90
31597;DHT22;18201;50.978;7.034;2022-09-09T01:11:55;16.20;99.90
31597;DHT22;18201;50.978;7.034;2022-09-09T01:13:02;16.30;99.90
31597;DHT22;18201;50.978;7.034;2022-09-09T01:14:13;16.30;99.90
31597;DHT22;18201;50.978;7.034;2022-09-09T01:15:22;16.30;99.90
31597;DHT22;18201;50.978;7.034;2022-09-09T01:16:26;16.30;99.90
31597;DHT22;18201;50.978;7.034;2022-09-09T01:17:32;16.30;99.90
31597;DHT22;18201;50.978;7.034;2022-09-09T01:18:37;16.30;99.90
31597;DHT22;18201;50.978;7.034;2022-09-09T01:19:53;16.30;99.90
31597;DHT22;18201;50.978;7.034;2022-09-09T01:21:03;16.30;99.90
31597;DHT22;18201;50.978;7.034;2022-09-09T01:22:08;16.40;99.90
31597;DHT22;18201;50.978;7.034;2022-09-09T01:23:38;16.30;99.90
31597;DHT22;18201;50.978;7.034;2022-09-09T01:24:44;16.30;99.90
31597;DHT22;18201;50.978;7.034;2022-09-09T01:26:14;16.30;99.90
31597;DHT22;18201;50.978;7.034;2022-09-09T01:27:18;16.30;99.90
31597;DHT22;18201;50.978;7.034;2022-09-09T01:28:24;16.30;99.90
31597;DHT22;18201;50.978;7.034;2022-09-09T01:29:27;16.20;99.90
31597;DHT22;18201;50.978;7.034;2022-09-09T01:30:30;16.20;99.90
31597;DHT22;18201;50.978;7.034;2022-09-09T01:31:36;16.20;99.90
31597;DHT22;18201;50.978;7.034;2022-09-09T01:32:41;16.20;99.90
31597;DHT22;18201;50.978;7.034;2022-09-09T01:33:42;16.20;99.90
31597;DHT22;18201;50.978;7.034;2022-09-09T01:34:44;16.20;99.90
31597;DHT22;18201;50.978;7.034;2022-09-09T01:35:50;16.20;99.90
31597;DHT22;18201;50.978;7.034;2022-09-09T01:36:58;16.20;99.90
31597;DHT22;18201;50.978;7.034;2022-09-09T01:38:00;16.20;99.90
31597;DHT22;18201;50.978;7.034;2022-09-09T01:39:02;16.10;99.90
31597;DHT22;18201;50.978;7.034;2022-09-09T01:40:04;16.10;99.90
31597;DHT22;18201;50.978;7.034;2022-09-09T01:41:06;16.10;99.90
31597;DHT22;18201;50.978;7.034;2022-09-09T01:42:10;16.10;99.90
31597;DHT22;18201;50.978;7.034;2022-09-09T01:43:13;16.10;99.90
31597;DHT22;18201;50.978;7.034;2022-09-09T01:44:14;16.10;99.90
31597;DHT22;18201;50.978;7.034;2022-09-09T01:45:16;16.10;99.90
31597;DHT22;18201;50.978;7.034;2022-09-09T01:46:17;16.00;99.90
31597;DHT22;18201;50.978;7.034;2022-09-09T01:47:20;16.00;99.90
31597;DHT22;18201;50.978;7.034;2022-09-09T01:48:22;16.00;99.90
31597;DHT22;18201;50.978;7.034;2022-09-09T01:49:24;16.00;99.90
31597;DHT22;18201;50.978;7.034;2022-09-09T01:50:25;16.10;99.90
31597;DHT22;18201;50.978;7.034;2022-09-09T01:51:27;16.00;99.90
31597;DHT22;18201;50.978;7.034;2022-09-09T01:52:29;16.10;99.90
31597;DHT22;18201;50.978;7.034;2022-09-09T01:53:31;16.00;99.90
31597;DHT22;18201;50.978;7.034;2022-09-09T01:54:33;16.00;99.90
31597;DHT22;18201;50.978;7.034;2022-09-09T01:55:39;16.00;99.90
31597;DHT22;18201;50.978;7.034;2022-09-09T01:56:47;16.00;99.90
31597;DHT22;18201;50.978;7.034;2022-09-09T01:57:59;16.10;99.90
31597;DHT22;18201;50.978;7.034;2022-09-09T01:59:18;16.10;99.90
31597;DHT22;18201;50.978;7.034;2022-09-09T02:00:22;16.10;99.90
31597;DHT22;18201;50.978;7.034;2022-09-09T02:01:28;16.20;99.90
31597;DHT22;18201;50.978;7.034;2022-09-09T02:02:36;16.10;99.90
31597;DHT22;18201;50.978;7.034;2022-09-09T02:03:37;16.10;99.90
31597;DHT22;18201;50.978;7.034;2022-09-09T02:04:41;16.20;99.90
31597;DHT22;18201;50.978;7.034;2022-09-09T02:05:45;16.20;99.90
31597;DHT22;18201;50.978;7.034;2022-09-09T02:06:53;16.20;99.90
31597;DHT22;18201;50.978;7.034;2022-09-09T02:08:00;16.20;99.90
31597;DHT22;18201;50.978;7.034;2022-09-09T02:09:06;16.20;99.90
31597;DHT22;18201;50.978;7.034;2022-09-09T02:10:11;16.20;99.90
31597;DHT22;18201;50.978;7.034;2022-09-09T02:11:15;16.20;99.90
31597;DHT22;18201;50.978;7.034;2022-09-09T02:12:18;16.20;99.90
31597;DHT22;18201;50.978;7.034;2022-09-09T02:13:25;16.20;99.90
31597;DHT22;18201;50.978;7.034;2022-09-09T02:14:28;16.20;99.90
31597;DHT22;18201;50.978;7.034;2022-09-09T02:15:35;16.20;99.90
31597;DHT22;18201;50.978;7.034;2022-09-09T02:16:44;16.20;99.90
31597;DHT22;18201;50.978;7.034;2022-09-09T02:17:46;16.20;99.90
31597;DHT22;18201;50.978;7.034;2022-09-09T02:18:51;16.20;99.90
31597;DHT22;18201;50.978;7.034;2022-09-09T02:19:57;16.10;99.90
31597;DHT22;18201;50.978;7.034;2022-09-09T02:21:02;16.10;99.90
31597;DHT22;18201;50.978;7.034;2022-09-09T02:22:04;16.10;99.90
31597;DHT22;18201;50.978;7.034;2022-09-09T02:23:07;16.20;99.90
31597;DHT22;18201;50.978;7.034;2022-09-09T02:24:09;16.10;99.90
31597;DHT22;18201;50.978;7.034;2022-09-09T02:25:15;16.10;99.90
31597;DHT22;18201;50.978;7.034;2022-09-09T02:26:19;16.10;99.90
31597;DHT22;18201;50.978;7.034;2022-09-09T02:27:22;16.10;99.90
31597;DHT22;18201;50.978;7.034;2022-09-09T02:28:26;16.10;99.90
31597;DHT22;18201;50.978;7.034;2022-09-09T02:29:33;16.10;99.90
31597;DHT22;18201;50.978;7.034;2022-09-09T02:30:35;16.10;99.90
31597;DHT22;18201;50.978;7.034;2022-09-09T02:31:39;16.10;99.90
31597;DHT22;18201;50.978;7.034;2022-09-09T02:32:42;16.10;99.90
31597;DHT22;18201;50.978;7.034;2022-09-09T02:33:50;16.10;99.90
31597;DHT22;18201;50.978;7.034;2022-09-09T02:34:54;16.10;99.90
31597;DHT22;18201;50.978;7.034;2022-09-09T02:35:58;16.10;99.90
31597;DHT22;18201;50.978;7.034;2022-09-09T02:37:04;16.10;99.90
31597;DHT22;18201;50.978;7.034;2022-09-09T02:38:10;16.10;99.90
31597;DHT22;18201;50.978;7.034;2022-09-09T02:39:13;16.10;99.90
31597;DHT22;18201;50.978;7.034;2022-09-09T02:40:15;16.10;99.90
31597;DHT22;18201;50.978;7.034;2022-09-09T02:41:17;16.20;99.90
31597;DHT22;18201;50.978;7.034;2022-09-09T02:42:19;16.20;99.90
31597;DHT22;18201;50.978;7.034;2022-09-09T02:43:20;16.20;99.90
31597;DHT22;18201;50.978;7.034;2022-09-09T02:44:24;16.20;99.90
31597;DHT22;18201;50.978;7.034;2022-09-09T02:45:27;16.20;99.90
31597;DHT22;18201;50.978;7.034;2022-09-09T02:46:41;16.20;99.90
31597;DHT22;18201;50.978;7.034;2022-09-09T02:47:48;16.30;99.90
31597;DHT22;18201;50.978;7.034;2022-09-09T02:48:57;16.30;99.90
31597;DHT22;18201;50.978;7.034;2022-09-09T02:50:09;16.30;99.90
31597;DHT22;18201;50.978;7.034;2022-09-09T02:51:17;16.30;99.90
31597;DHT22;18201;50.978;7.034;2022-09-09T02:52:21;16.30;99.90
31597;DHT22;18201;50.978;7.034;2022-09-09T02:53:39;16.30;99.90
31597;DHT22;18201;50.978;7.034;2022-09-09T02:54:43;16.30;99.90
31597;DHT22;18201;50.978;7.034;2022-09-09T02:55:47;16.30;99.90
31597;DHT22;18201;50.978;7.034;2022-09-09T02:56:52;16.30;99.90
31597;DHT22;18201;50.978;7.034;2022-09-09T02:57:55;16.30;99.90
31597;DHT22;18201;50.978;7.034;2022-09-09T02:58:57;16.30;99.90
31597;DHT22;18201;50.978;7.034;2022-09-09T03:00:01;16.30;99.90
31597;DHT22;18201;50.978;7.034;2022-09-09T03:01:02;16.30;99.90
31597;DHT22;18201;50.978;7.034;2022-09-09T03:02:04;16.30;99.90
31597;DHT22;18201;50.978;7.034;2022-09-09T03:03:06;16.30;99.90
31597;DHT22;18201;50.978;7.034;2022-09-09T03:04:09;16.30;99.90
31597;DHT22;18201;50.978;7.034;2022-09-09T03:05:10;16.30;99.90
31597;DHT22;18201;50.978;7.034;2022-09-09T03:06:13;16.30;99.90
31597;DHT22;18201;50.978;7.034;2022-09-09T03:07:14;16.20;99.90
31597;DHT22;18201;50.978;7.034;2022-09-09T03:08:17;16.30;99.90
31597;DHT22;18201;50.978;7.034;2022-09-09T03:09:18;16.30;99.90
31597;DHT22;18201;50.978;7.034;2022-09-09T03:10:20;16.30;99.90
31597;DHT22;18201;50.978;7.034;2022-09-09T03:11:21;16.20;99.90
31597;DHT22;18201;50.978;7.034;2022-09-09T03:12:23;16.30;99.90
31597;DHT22;18201;50.978;7.034;2022-09-09T03:13:24;16.30;99.90
31597;DHT22;18201;50.978;7.034;2022-09-09T03:14:25;16.20;99.90
31597;DHT22;18201;50.978;7.034;2022-09-09T03:15:28;16.20;99.90
31597;DHT22;18201;50.978;7.034;2022-09-09T03:16:31;16.20;99.90
31597;DHT22;18201;50.978;7.034;2022-09-09T03:17:33;16.20;99.90
31597;DHT22;18201;50.978;7.034;2022-09-09T03:18:35;16.20;99.90
31597;DHT22;18201;50.978;7.034;2022-09-09T03:19:36;16.20;99.90
31597;DHT22;18201;50.978;7.034;2022-09-09T03:20:38;16.20;99.90
31597;DHT22;18201;50.978;7.034;2022-09-09T03:21:39;16.20;99.90
31597;DHT22;18201;50.978;7.034;2022-09-09T03:22:41;16.30;99.90
31597;DHT22;18201;50.978;7.034;2022-09-09T03:23:42;16.20;99.90
31597;DHT22;18201;50.978;7.034;2022-09-09T03:24:45;16.20;99.90
31597;DHT22;18201;50.978;7.034;2022-09-09T03:25:47;16.20;99.90
31597;DHT22;18201;50.978;7.034;2022-09-09T03:26:50;16.20;99.90
31597;DHT22;18201;50.978;7.034;2022-09-09T03:27:51;16.20;99.90
31597;DHT22;18201;50.978;7.034;2022-09-09T03:28:54;16.20;99.90
31597;DHT22;18201;50.978;7.034;2022-09-09T03:29:55;16.20;99.90
31597;DHT22;18201;50.978;7.034;2022-09-09T03:31:00;16.20;99.90
31597;DHT22;18201;50.978;7.034;2022-09-09T03:32:01;16.20;99.90
31597;DHT22;18201;50.978;7.034;2022-09-09T03:33:03;16.20;99.90
31597;DHT22;18201;50.978;7.034;2022-09-09T03:34:04;16.30;99.90
31597;DHT22;18201;50.978;7.034;2022-09-09T03:35:07;16.20;99.90
31597;DHT22;18201;50.978;7.034;2022-09-09T03:36:08;16.20;99.90
31597;DHT22;18201;50.978;7.034;2022-09-09T03:37:11;16.20;99.90
31597;DHT22;18201;50.978;7.034;2022-09-09T03:38:11;16.20;99.90
31597;DHT22;18201;50.978;7.034;2022-09-09T03:39:13;16.20;99.90
31597;DHT22;18201;50.978;7.034;2022-09-09T03:40:15;16.20;99.90
31597;DHT22;18201;50.978;7.034;2022-09-09T03:41:18;16.20;99.90
31597;DHT22;18201;50.978;7.034;2022-09-09T03:42:19;16.20;99.90
31597;DHT22;18201;50.978;7.034;2022-09-09T03:43:22;16.20;99.90
31597;DHT22;18201;50.978;7.034;2022-09-09T03:44:23;16.20;99.90
31597;DHT22;18201;50.978;7.034;2022-09-09T03:45:25;16.20;99.90
31597;DHT22;18201;50.978;7.034;2022-09-09T03:46:27;16.20;99.90
31597;DHT22;18201;50.978;7.034;2022-09-09T03:47:29;16.20;99.90
31597;DHT22;18201;50.978;7.034;2022-09-09T03:48:30;16.30;99.90
31597;DHT22;18201;50.978;7.034;2022-09-09T03:49:32;16.30;99.90
31597;DHT22;18201;50.978;7.034;2022-09-09T03:50:33;16.20;99.90
31597;DHT22;18201;50.978;7.034;2022-09-09T03:51:34;16.20;99.90
31597;DHT22;18201;50.978;7.034;2022-09-09T03:52:37;16.20;99.90
31597;DHT22;18201;50.978;7.034;2022-09-09T03:53:39;16.20;99.90
31597;DHT22;18201;50.978;7.034;2022-09-09T03:54:40;16.20;99.90
31597;DHT22;18201;50.978;7.034;2022-09-09T03:55:44;16.20;99.90
31597;DHT22;18201;50.978;7.034;2022-09-09T03:56:46;16.30;99.90
31597;DHT22;18201;50.978;7.034;2022-09-09T03:57:47;16.20;99.90
31597;DHT22;18201;50.978;7.034;2022-09-09T03:58:48;16.20;99.90
31597;DHT22;18201;50.978;7.034;2022-09-09T03:59:50;16.30;99.90
31597;DHT22;18201;50.978;7.034;2022-09-09T04:00:55;16.20;99.90
31597;DHT22;18201;50.978;7.034;2022-09-09T04:01:58;16.20;99.90
31597;DHT22;18201;50.978;7.034;2022-09-09T04:02:59;16.20;99.90
31597;DHT22;18201;50.978;7.034;2022-09-09T04:04:02;16.20;99.90
31597;DHT22;18201;50.978;7.034;2022-09-09T04:05:03;16.20;99.90
31597;DHT22;18201;50.978;7.034;2022-09-09T04:06:06;16.20;99.90
31597;DHT22;18201;50.978;7.034;2022-09-09T04:07:08;16.20;99.90
31597;DHT22;18201;50.978;7.034;2022-09-09T04:08:10;16.20;99.90
31597;DHT22;18201;50.978;7.034;2022-09-09T04:09:12;16.20;99.90
31597;DHT22;18201;50.978;7.034;2022-09-09T04:10:14;16.20;99.90
31597;DHT22;18201;50.978;7.034;2022-09-09T04:11:16;16.20;99.90
31597;DHT22;18201;50.978;7.034;2022-09-09T04:12:18;16.20;99.90
31597;DHT22;18201;50.978;7.034;2022-09-09T04:13:19;16.20;99.90
31597;DHT22;18201;50.978;7.034;2022-09-09T04:14:21;16.20;99.90
31597;DHT22;18201;50.978;7.034;2022-09-09T04:15:22;16.20;99.90
31597;DHT22;18201;50.978;7.034;2022-09-09T04:16:24;16.20;99.90
31597;DHT22;18201;50.978;7.034;2022-09-09T04:17:26;16.20;99.90
31597;DHT22;18201;50.978;7.034;2022-09-09T04:18:28;16.20;99.90
31597;DHT22;18201;50.978;7.034;2022-09-09T04:19:29;16.20;99.90
31597;DHT22;18201;50.978;7.034;2022-09-09T04:20:32;16.20;99.90
31597;DHT22;18201;50.978;7.034;2022-09-09T04:21:33;16.30;99.90
31597;DHT22;18201;50.978;7.034;2022-09-09T04:22:35;16.20;99.90
31597;DHT22;18201;50.978;7.034;2022-09-09T04:23:36;16.20;99.90
31597;DHT22;18201;50.978;7.034;2022-09-09T04:24:38;16.20;99.90
31597;DHT22;18201;50.978;7.034;2022-09-09T04:25:43;16.20;99.90
31597;DHT22;18201;50.978;7.034;2022-09-09T04:26:45;16.20;99.90
31597;DHT22;18201;50.978;7.034;2022-09-09T04:27:47;16.20;99.90
31597;DHT22;18201;50.978;7.034;2022-09-09T04:28:52;16.20;99.90
31597;DHT22;18201;50.978;7.034;2022-09-09T04:29:53;16.20;99.90
31597;DHT22;18201;50.978;7.034;2022-09-09T04:31:05;16.20;99.90
31597;DHT22;18201;50.978;7.034;2022-09-09T04:32:06;16.20;99.90
31597;DHT22;18201;50.978;7.034;2022-09-09T04:33:09;16.20;99.90
31597;DHT22;18201;50.978;7.034;2022-09-09T04:34:10;16.20;99.90
31597;DHT22;18201;50.978;7.034;2022-09-09T04:35:12;16.20;99.90
31597;DHT22;18201;50.978;7.034;2022-09-09T04:36:13;16.20;99.90
31597;DHT22;18201;50.978;7.034;2022-09-09T04:37:15;16.20;99.90
31597;DHT22;18201;50.978;7.034;2022-09-09T04:38:17;16.20;99.90
31597;DHT22;18201;50.978;7.034;2022-09-09T04:39:19;16.20;99.90
31597;DHT22;18201;50.978;7.034;2022-09-09T04:40:20;16.20;99.90
31597;DHT22;18201;50.978;7.034;2022-09-09T04:41:22;16.20;99.90
31597;DHT22;18201;50.978;7.034;2022-09-09T04:42:24;16.20;99.90
31597;DHT22;18201;50.978;7.034;2022-09-09T04:43:28;16.20;99.90
31597;DHT22;18201;50.978;7.034;2022-09-09T04:44:29;16.20;99.90
31597;DHT22;18201;50.978;7.034;2022-09-09T04:45:31;16.20;99.90
31597;DHT22;18201;50.978;7.034;2022-09-09T04:46:32;16.20;99.90
31597;DHT22;18201;50.978;7.034;2022-09-09T04:47:35;16.20;99.90
31597;DHT22;18201;50.978;7.034;2022-09-09T04:48:37;16.20;99.90
31597;DHT22;18201;50.978;7.034;2022-09-09T04:49:39;16.20;99.90
31597;DHT22;18201;50.978;7.034;2022-09-09T04:50:41;16.20;99.90
31597;DHT22;18201;50.978;7.034;2022-09-09T04:51:43;16.20;99.90
31597;DHT22;18201;50.978;7.034;2022-09-09T04:52:44;16.20;99.90
31597;DHT22;18201;50.978;7.034;2022-09-09T04:53:46;16.20;99.90
31597;DHT22;18201;50.978;7.034;2022-09-09T04:54:48;16.20;99.90
31597;DHT22;18201;50.978;7.034;2022-09-09T04:55:49;16.20;99.90
31597;DHT22;18201;50.978;7.034;2022-09-09T04:56:51;16.20;99.90
31597;DHT22;18201;50.978;7.034;2022-09-09T04:57:53;16.20;99.90
31597;DHT22;18201;50.978;7.034;2022-09-09T04:58:54;16.20;99.90
31597;DHT22;18201;50.978;7.034;2022-09-09T04:59:56;16.20;99.90
31597;DHT22;18201;50.978;7.034;2022-09-09T05:01:06;16.20;99.90
31597;DHT22;18201;50.978;7.034;2022-09-09T05:02:08;16.20;99.90
31597;DHT22;18201;50.978;7.034;2022-09-09T05:03:09;16.20;99.90
31597;DHT22;18201;50.978;7.034;2022-09-09T05:04:12;16.20;99.90
31597;DHT22;18201;50.978;7.034;2022-09-09T05:05:14;16.20;99.90
31597;DHT22;18201;50.978;7.034;2022-09-09T05:06:18;16.20;99.90
31597;DHT22;18201;50.978;7.034;2022-09-09T05:07:19;16.30;99.90
31597;DHT22;18201;50.978;7.034;2022-09-09T05:08:21;16.20;99.90
31597;DHT22;18201;50.978;7.034;2022-09-09T05:09:23;16.20;99.90
31597;DHT22;18201;50.978;7.034;2022-09-09T05:10:25;16.30;99.90
31597;DHT22;18201;50.978;7.034;2022-09-09T05:11:28;16.30;99.90
31597;DHT22;18201;50.978;7.034;2022-09-09T05:12:30;16.30;99.90
31597;DHT22;18201;50.978;7.034;2022-09-09T05:13:31;16.30;99.90
31597;DHT22;18201;50.978;7.034;2022-09-09T05:14:33;16.30;99.90
31597;DHT22;18201;50.978;7.034;2022-09-09T05:15:36;16.30;99.90
31597;DHT22;18201;50.978;7.034;2022-09-09T05:16:38;16.40;99.90
31597;DHT22;18201;50.978;7.034;2022-09-09T05:17:39;16.50;99.90
31597;DHT22;18201;50.978;7.034;2022-09-09T05:18:41;16.50;99.90
31597;DHT22;18201;50.978;7.034;2022-09-09T05:19:44;16.50;99.90
31597;DHT22;18201;50.978;7.034;2022-09-09T05:20:46;16.50;99.90
31597;DHT22;18201;50.978;7.034;2022-09-09T05:21:47;16.50;99.90
31597;DHT22;18201;50.978;7.034;2022-09-09T05:22:52;16.50;99.90
31597;DHT22;18201;50.978;7.034;2022-09-09T05:23:54;16.60;99.90
31597;DHT22;18201;50.978;7.034;2022-09-09T05:24:56;16.60;99.90
31597;DHT22;18201;50.978;7.034;2022-09-09T05:25:57;16.60;99.90
31597;DHT22;18201;50.978;7.034;2022-09-09T05:26:59;16.60;99.90
31597;DHT22;18201;50.978;7.034;2022-09-09T05:28:02;16.50;99.90
31597;DHT22;18201;50.978;7.034;2022-09-09T05:29:04;16.40;99.90
31597;DHT22;18201;50.978;7.034;2022-09-09T05:30:07;16.40;99.90
31597;DHT22;18201;50.978;7.034;2022-09-09T05:31:11;16.30;99.90
31597;DHT22;18201;50.978;7.034;2022-09-09T05:32:13;16.20;99.90
31597;DHT22;18201;50.978;7.034;2022-09-09T05:33:15;16.20;99.90
31597;DHT22;18201;50.978;7.034;2022-09-09T05:34:16;16.20;99.90
31597;DHT22;18201;50.978;7.034;2022-09-09T05:35:19;16.10;99.90
31597;DHT22;18201;50.978;7.034;2022-09-09T05:36:22;16.10;99.90
31597;DHT22;18201;50.978;7.034;2022-09-09T05:37:24;16.00;99.90
31597;DHT22;18201;50.978;7.034;2022-09-09T05:38:25;15.90;99.90
31597;DHT22;18201;50.978;7.034;2022-09-09T05:39:27;15.90;99.90
31597;DHT22;18201;50.978;7.034;2022-09-09T05:40:27;15.80;99.90
31597;DHT22;18201;50.978;7.034;2022-09-09T05:41:29;15.80;99.90
31597;DHT22;18201;50.978;7.034;2022-09-09T05:42:31;15.70;99.90
31597;DHT22;18201;50.978;7.034;2022-09-09T05:43:33;15.70;99.90
31597;DHT22;18201;50.978;7.034;2022-09-09T05:44:36;15.70;99.90
31597;DHT22;18201;50.978;7.034;2022-09-09T05:45:38;15.70;99.90
31597;DHT22;18201;50.978;7.034;2022-09-09T05:46:39;15.60;99.90
31597;DHT22;18201;50.978;7.034;2022-09-09T05:47:41;15.60;99.90
31597;DHT22;18201;50.978;7.034;2022-09-09T05:48:43;15.60;99.90
31597;DHT22;18201;50.978;7.034;2022-09-09T05:49:46;15.60;99.90
31597;DHT22;18201;50.978;7.034;2022-09-09T05:50:53;15.60;99.90
31597;DHT22;18201;50.978;7.034;2022-09-09T05:51:55;15.50;99.90
31597;DHT22;18201;50.978;7.034;2022-09-09T05:52:56;15.50;99.90
31597;DHT22;18201;50.978;7.034;2022-09-09T05:53:58;15.50;99.90
31597;DHT22;18201;50.978;7.034;2022-09-09T05:54:59;15.60;99.90
31597;DHT22;18201;50.978;7.034;2022-09-09T05:56:03;15.50;99.90
31597;DHT22;18201;50.978;7.034;2022-09-09T05:57:04;15.50;99.90
31597;DHT22;18201;50.978;7.034;2022-09-09T05:58:06;15.50;99.90
31597;DHT22;18201;50.978;7.034;2022-09-09T05:59:07;15.50;99.90
31597;DHT22;18201;50.978;7.034;2022-09-09T06:00:10;15.50;99.90
31597;DHT22;18201;50.978;7.034;2022-09-09T06:01:15;15.50;99.90
31597;DHT22;18201;50.978;7.034;2022-09-09T06:02:17;15.50;99.90
31597;DHT22;18201;50.978;7.034;2022-09-09T06:03:18;15.50;99.90
31597;DHT22;18201;50.978;7.034;2022-09-09T06:04:24;15.50;99.90
31597;DHT22;18201;50.978;7.034;2022-09-09T06:05:25;15.50;99.90
31597;DHT22;18201;50.978;7.034;2022-09-09T06:06:33;15.50;99.90
31597;DHT22;18201;50.978;7.034;2022-09-09T06:07:37;15.50;99.90
31597;DHT22;18201;50.978;7.034;2022-09-09T06:08:43;15.50;99.90
31597;DHT22;18201;50.978;7.034;2022-09-09T06:09:44;15.50;99.90
31597;DHT22;18201;50.978;7.034;2022-09-09T06:10:46;15.50;99.90
31597;DHT22;18201;50.978;7.034;2022-09-09T06:11:47;15.50;99.90
31597;DHT22;18201;50.978;7.034;2022-09-09T06:12:52;15.50;99.90
31597;DHT22;18201;50.978;7.034;2022-09-09T06:13:52;15.50;99.90
31597;DHT22;18201;50.978;7.034;2022-09-09T06:14:55;15.50;99.90
31597;DHT22;18201;50.978;7.034;2022-09-09T06:15:56;15.60;99.90
31597;DHT22;18201;50.978;7.034;2022-09-09T06:16:58;15.50;99.90
31597;DHT22;18201;50.978;7.034;2022-09-09T06:17:59;15.50;99.90
31597;DHT22;18201;50.978;7.034;2022-09-09T06:19:02;15.50;99.90
31597;DHT22;18201;50.978;7.034;2022-09-09T06:20:04;15.60;99.90
31597;DHT22;18201;50.978;7.034;2022-09-09T06:21:11;15.60;99.90
31597;DHT22;18201;50.978;7.034;2022-09-09T06:22:13;15.60;99.90
31597;DHT22;18201;50.978;7.034;2022-09-09T06:23:15;15.60;99.90
31597;DHT22;18201;50.978;7.034;2022-09-09T06:24:16;15.50;99.90
31597;DHT22;18201;50.978;7.034;2022-09-09T06:25:19;15.50;99.90
31597;DHT22;18201;50.978;7.034;2022-09-09T06:26:22;15.60;99.90
31597;DHT22;18201;50.978;7.034;2022-09-09T06:27:24;15.60;99.90
31597;DHT22;18201;50.978;7.034;2022-09-09T06:28:26;15.50;99.90
31597;DHT22;18201;50.978;7.034;2022-09-09T06:29:28;15.50;99.90
31597;DHT22;18201;50.978;7.034;2022-09-09T06:30:29;15.50;99.90
31597;DHT22;18201;50.978;7.034;2022-09-09T06:31:32;15.50;99.90
31597;DHT22;18201;50.978;7.034;2022-09-09T06:32:34;15.50;99.90
31597;DHT22;18201;50.978;7.034;2022-09-09T06:33:37;15.40;99.90
31597;DHT22;18201;50.978;7.034;2022-09-09T06:34:40;15.40;99.90
31597;DHT22;18201;50.978;7.034;2022-09-09T06:35:42;15.40;99.90
31597;DHT22;18201;50.978;7.034;2022-09-09T06:36:52;15.40;99.90
31597;DHT22;18201;50.978;7.034;2022-09-09T06:37:55;15.40;99.90
31597;DHT22;18201;50.978;7.034;2022-09-09T06:38:56;15.40;99.90
31597;DHT22;18201;50.978;7.034;2022-09-09T06:39:58;15.40;99.90
31597;DHT22;18201;50.978;7.034;2022-09-09T06:41:00;15.30;99.90
31597;DHT22;18201;50.978;7.034;2022-09-09T06:42:02;15.40;99.90
31597;DHT22;18201;50.978;7.034;2022-09-09T06:43:04;15.40;99.90
31597;DHT22;18201;50.978;7.034;2022-09-09T06:44:05;15.40;99.90
31597;DHT22;18201;50.978;7.034;2022-09-09T06:45:08;15.40;99.90